Time;durP1;ratioP1;P1;durP2;ratioP2;P2;SDS_P1;SDS_P2;PMS_P1;PMS_P2;Temp;Humidity;BMP_temperature;BMP_pressure;BME280_temperature;BME280_humidity;BME280_pressure;Samples;Min_cycle;Max_cycle;Signal;HPM_P1;HPM_P2
2021/07/06 00:00:11;;;;;;;;;2.25;2.25;;;;;25.69;47.34;99957.47;5014448;28;51798;-39
2021/07/06 00:02:36;;;;;;;;;2.50;2.50;;;;;25.67;47.70;99965.25;5015727;28;51188;-39
2021/07/06 00:05:02;;;;;;;;;3.50;2.75;;;;;25.67;47.70;99938.34;5015201;28;51177;-39
2021/07/06 00:07:27;;;;;;;;;2.25;2.00;;;;;25.68;47.81;99944.72;5013689;28;51139;-38
2021/07/06 00:09:53;;;;;;;;;2.00;2.00;;;;;25.66;47.95;99964.41;5014003;27;51825;-39
2021/07/06 00:12:19;;;;;;;;;2.00;2.00;;;;;25.68;47.83;99972.44;5057578;28;51284;-39
2021/07/06 00:14:45;;;;;;;;;2.25;2.00;;;;;25.68;47.75;99964.13;5022216;28;51080;-39
2021/07/06 00:17:11;;;;;;;;;4.00;2.25;;;;;25.67;47.72;99949.44;5016730;28;50959;-39
2021/07/06 00:19:36;;;;;;;;;3.50;3.00;;;;;25.67;47.86;99938.34;5025713;28;50979;-40
2021/07/06 00:22:02;;;;;;;;;3.00;2.75;;;;;25.67;47.67;99932.78;5020161;28;50965;-39
2021/07/06 00:24:27;;;;;;;;;2.50;2.50;;;;;25.66;47.78;99933.06;5016488;28;50844;-39
2021/07/06 00:26:53;;;;;;;;;1.50;1.50;;;;;25.66;47.85;99924.75;5017965;27;50870;-39
2021/07/06 00:29:18;;;;;;;;;2.00;2.00;;;;;25.65;47.71;99926.69;5019018;27;50973;-39
2021/07/06 00:31:44;;;;;;;;;2.25;2.25;;;;;25.66;48.06;99925.59;5013544;28;50884;-39
2021/07/06 00:34:10;;;;;;;;;3.00;2.50;;;;;25.65;47.75;99918.38;5019660;27;51046;-38
2021/07/06 00:36:35;;;;;;;;;1.75;1.75;;;;;25.64;47.94;99930.59;5013844;28;51037;-39
2021/07/06 00:39:01;;;;;;;;;3.00;3.00;;;;;25.65;47.79;99923.91;5028010;28;51766;-39
2021/07/06 00:41:30;;;;;;;;;3.00;3.00;;;;;25.65;47.85;99912.81;5013752;27;51111;-39
2021/07/06 00:43:55;;;;;;;;;3.00;3.00;;;;;25.63;47.85;99909.47;5020136;27;50920;-39
2021/07/06 00:46:21;;;;;;;;;1.75;1.75;;;;;25.63;47.92;99912.25;5018609;27;51126;-39
2021/07/06 00:48:46;;;;;;;;;4.50;3.50;;;;;25.63;47.81;99929.72;5014438;27;51408;-39
2021/07/06 00:51:13;;;;;;;;;3.75;3.75;;;;;25.63;47.83;99928.88;5016415;28;51074;-38
2021/07/06 00:53:38;;;;;;;;;6.50;5.25;;;;;25.63;47.47;99932.50;5016218;28;51182;-39
2021/07/06 00:56:04;;;;;;;;;4.50;4.50;;;;;25.62;47.99;99928.06;5016841;28;51169;-39
2021/07/06 00:58:30;;;;;;;;;2.75;2.25;;;;;25.63;47.62;99931.66;5016430;28;51181;-38
2021/07/06 01:00:55;;;;;;;;;5.00;4.25;;;;;25.62;47.96;99928.06;5016522;28;51136;-38
2021/07/06 01:03:22;;;;;;;;;4.50;4.50;;;;;25.61;47.52;99931.94;5018023;28;50993;-39
2021/07/06 01:05:47;;;;;;;;;7.00;5.25;;;;;25.62;47.80;99925.28;5017973;28;50900;-40
2021/07/06 01:08:13;;;;;;;;;8.75;5.00;;;;;25.61;47.81;99933.88;5017238;28;51754;-39
2021/07/06 01:10:38;;;;;;;;;3.75;3.00;;;;;25.62;48.04;99935.56;5018117;28;51126;-43
2021/07/06 01:13:05;;;;;;;;;6.00;6.00;;;;;25.61;47.99;99933.88;5014726;28;51078;-41
2021/07/06 01:15:32;;;;;;;;;6.50;6.25;;;;;25.62;47.78;99930.84;5016275;28;51070;-39
2021/07/06 01:17:58;;;;;;;;;4.75;3.50;;;;;25.61;47.81;99937.50;5015919;28;51098;-39
2021/07/06 01:20:23;;;;;;;;;6.00;5.50;;;;;25.61;47.91;99942.22;5030495;28;50937;-39
2021/07/06 01:22:50;;;;;;;;;6.25;6.25;;;;;25.60;47.71;99955.25;5018472;28;51002;-39
2021/07/06 01:25:16;;;;;;;;;7.50;6.00;;;;;25.61;47.99;99975.50;5018191;28;51023;-39
2021/07/06 01:27:42;;;;;;;;;5.00;5.00;;;;;25.60;47.82;99968.28;5023406;27;51745;-39
2021/07/06 01:30:11;;;;;;;;;10.75;6.75;;;;;25.60;47.79;99948.88;5024699;28;51140;-39
2021/07/06 01:32:42;;;;;;;;;7.00;7.00;;;;;25.60;47.66;99959.97;5030311;28;50598;-39
2021/07/06 01:35:09;;;;;;;;;3.75;3.75;;;;;25.59;47.68;99953.59;5020338;28;51362;-39
2021/07/06 01:37:35;;;;;;;;;6.25;5.75;;;;;25.59;47.71;99958.31;5013760;28;51862;-39
2021/07/06 01:40:00;;;;;;;;;9.00;8.00;;;;;25.58;47.60;99951.09;5014373;28;51409;-39
2021/07/06 01:42:26;;;;;;;;;9.75;7.50;;;;;25.58;47.76;99959.41;5015991;28;50888;-39
2021/07/06 01:45:09;;;;;;;;;10.25;9.00;;;;;25.58;47.74;99962.19;5016089;27;51266;-39
2021/07/06 01:47:39;;;;;;;;;7.75;5.25;;;;;25.58;47.76;99940.00;5015113;28;52080;-39
2021/07/06 01:50:07;;;;;;;;;7.50;7.50;;;;;25.57;47.85;99960.53;5015356;27;51358;-39
2021/07/06 01:52:33;;;;;;;;;8.00;6.50;;;;;25.56;47.82;99954.16;5014361;28;51241;-39
2021/07/06 01:54:59;;;;;;;;;8.00;6.25;;;;;25.56;47.69;99969.97;5030803;28;51024;-39
2021/07/06 01:57:24;;;;;;;;;6.50;6.25;;;;;25.56;47.82;99976.34;5015138;28;51853;-40
2021/07/06 01:59:53;;;;;;;;;8.75;4.75;;;;;25.56;47.77;99976.34;5018902;27;50940;-39
2021/07/06 02:02:18;;;;;;;;;6.25;5.00;;;;;25.56;47.72;99990.19;5017099;28;51077;-39
2021/07/06 02:04:45;;;;;;;;;5.75;5.75;;;;;25.55;47.86;100004.34;5018179;28;51025;-39
2021/07/06 02:07:11;;;;;;;;;8.25;6.25;;;;;25.56;47.76;100011.56;5015162;28;53169;-39
2021/07/06 02:09:37;;;;;;;;;7.75;7.75;;;;;25.55;47.62;99998.81;5015485;28;51008;-39
2021/07/06 02:12:03;;;;;;;;;6.25;6.25;;;;;25.55;47.94;100001.56;5006679;28;51004;-39
2021/07/06 02:14:28;;;;;;;;;5.00;5.00;;;;;25.54;47.50;100006.28;5017863;28;50963;-38
2021/07/06 02:16:53;;;;;;;;;5.75;5.75;;;;;25.54;47.73;100033.19;5018787;28;51179;-39
2021/07/06 02:19:18;;;;;;;;;8.50;6.25;;;;;25.54;47.83;100034.03;5020543;28;51087;-39
2021/07/06 02:21:44;;;;;;;;;6.50;5.75;;;;;25.54;47.69;100038.72;5031942;28;51105;-38
2021/07/06 02:24:09;;;;;;;;;8.00;8.00;;;;;25.54;47.92;100041.50;5016223;27;51012;-38
2021/07/06 02:26:35;;;;;;;;;9.75;7.00;;;;;25.53;47.73;100051.78;5017802;27;51086;-38
2021/07/06 02:29:00;;;;;;;;;7.00;7.00;;;;;25.52;47.86;100055.63;5023508;27;51146;-38
2021/07/06 02:31:25;;;;;;;;;9.00;7.75;;;;;25.53;47.65;100039.81;5015115;28;51077;-38
2021/07/06 02:33:51;;;;;;;;;6.25;5.75;;;;;25.53;47.80;100056.44;5018222;27;50990;-38
2021/07/06 02:36:16;;;;;;;;;6.00;5.00;;;;;25.52;47.54;100047.31;5014430;28;51698;-38
2021/07/06 02:38:41;;;;;;;;;6.00;3.00;;;;;25.53;47.50;100045.38;5014664;28;50920;-38
2021/07/06 02:41:07;;;;;;;;;4.50;3.50;;;;;25.52;47.79;100043.69;5015192;28;51661;-38
2021/07/06 02:43:33;;;;;;;;;5.75;5.75;;;;;25.52;47.81;100043.69;5015771;28;50984;-39
2021/07/06 02:45:58;;;;;;;;;8.25;6.00;;;;;25.51;47.61;100037.31;5014991;28;51881;-38
2021/07/06 02:48:24;;;;;;;;;4.00;3.00;;;;;25.51;47.60;100029.00;5015472;28;50881;-38
2021/07/06 02:50:49;;;;;;;;;4.50;3.00;;;;;25.51;47.85;100045.63;5033104;28;51043;-38
2021/07/06 02:53:14;;;;;;;;;4.75;4.00;;;;;25.50;47.58;100057.00;5021537;28;51102;-38
2021/07/06 02:55:40;;;;;;;;;5.25;4.00;;;;;25.50;47.52;100059.78;5014779;28;51855;-38
2021/07/06 02:58:06;;;;;;;;;4.25;4.25;;;;;25.50;47.73;100054.25;5014815;28;51065;-38
2021/07/06 03:00:32;;;;;;;;;2.50;2.50;;;;;25.49;47.87;100047.03;5014971;28;51054;-38
2021/07/06 03:03:00;;;;;;;;;4.50;3.75;;;;;25.49;47.85;100050.63;5014763;28;51226;-39
2021/07/06 03:05:30;;;;;;;;;3.00;3.00;;;;;25.48;47.38;100064.78;5014559;28;52011;-39
2021/07/06 03:07:56;;;;;;;;;4.00;2.00;;;;;25.48;47.73;100060.06;5013938;28;51402;-41
2021/07/06 03:10:52;;;;;;;;;3.25;3.00;;;;;25.48;47.62;100075.88;5014778;27;51162;-39
2021/07/06 03:13:17;;;;;;;;;3.00;2.25;;;;;25.47;47.76;100069.50;5027871;27;52162;-39
2021/07/06 03:15:43;;;;;;;;;3.25;2.50;;;;;25.46;47.57;100059.50;5015407;28;51823;-39
2021/07/06 03:18:10;;;;;;;;;4.75;2.50;;;;;25.47;47.71;100063.13;5018369;28;52108;-39
2021/07/06 03:20:36;;;;;;;;;3.00;3.00;;;;;25.47;47.79;100054.78;5021815;28;50995;-39
2021/07/06 03:23:03;;;;;;;;;3.50;2.00;;;;;25.46;47.44;100042.88;5025985;28;51030;-39
2021/07/06 03:25:29;;;;;;;;;2.75;2.75;;;;;25.47;47.52;100043.72;5014518;28;51008;-39
2021/07/06 03:27:56;;;;;;;;;3.00;1.00;;;;;25.45;47.74;100035.66;5024240;27;51225;-38
2021/07/06 03:30:24;;;;;;;;;2.25;2.00;;;;;25.46;47.90;100042.03;5014298;28;51026;-39
2021/07/06 03:32:51;;;;;;;;;2.00;2.00;;;;;25.46;47.71;100045.66;5015019;28;51051;-39
2021/07/06 03:35:17;;;;;;;;;2.00;2.00;;;;;25.46;47.69;100039.28;5014180;28;51799;-39
2021/07/06 03:37:42;;;;;;;;;3.00;1.50;;;;;25.45;47.52;100037.59;5013630;28;50836;-39
2021/07/06 03:40:09;;;;;;;;;2.25;2.25;;;;;25.45;47.70;100040.38;5014278;28;50881;-39
2021/07/06 03:42:35;;;;;;;;;3.00;1.25;;;;;25.45;47.99;100041.22;5016435;28;51162;-39
2021/07/06 03:45:00;;;;;;;;;1.00;1.00;;;;;25.45;47.71;100037.59;5017465;28;51256;-39
2021/07/06 03:47:26;;;;;;;;;2.00;0.25;;;;;25.44;47.77;100027.63;5014310;28;51138;-39
2021/07/06 03:49:51;;;;;;;;;0.25;0.25;;;;;25.43;47.55;100037.03;5029493;28;51035;-39
2021/07/06 03:52:17;;;;;;;;;2.00;2.00;;;;;25.43;47.80;100051.75;5014650;28;51123;-39
2021/07/06 03:54:42;;;;;;;;;1.25;1.00;;;;;25.42;47.57;100044.50;5013670;28;51798;-39
2021/07/06 03:57:07;;;;;;;;;1.75;1.75;;;;;25.43;47.92;100053.66;5013867;28;51367;-39
2021/07/06 03:59:33;;;;;;;;;1.00;1.00;;;;;25.43;47.84;100043.44;5014226;27;50975;-38
2021/07/06 04:01:58;;;;;;;;;1.25;1.25;;;;;25.43;47.83;100059.22;5014333;28;50965;-39
2021/07/06 04:04:24;;;;;;;;;0.75;0.75;;;;;25.41;47.66;100056.72;5029016;28;52906;-39
2021/07/06 04:06:50;;;;;;;;;2.00;1.00;;;;;25.42;47.72;100065.88;5014077;27;51347;-39
2021/07/06 04:09:15;;;;;;;;;2.00;1.00;;;;;25.42;47.71;100063.91;5016842;28;51204;-39
2021/07/06 04:11:41;;;;;;;;;0.25;0.25;;;;;25.41;47.63;100058.66;5036012;28;50577;-39
2021/07/06 04:14:06;;;;;;;;;1.00;1.00;;;;;25.40;47.63;100068.09;5016080;28;50988;-39
2021/07/06 04:16:31;;;;;;;;;1.00;1.00;;;;;25.41;47.73;100078.06;5014343;28;50997;-39
2021/07/06 04:18:57;;;;;;;;;0.00;0.00;;;;;25.40;47.85;100081.94;5012865;28;51075;-39
2021/07/06 04:21:23;;;;;;;;;1.00;0.75;;;;;25.39;47.59;100085.81;5014156;28;51097;-39
2021/07/06 04:23:48;;;;;;;;;1.00;1.00;;;;;25.39;47.64;100080.28;5034312;28;50730;-39
2021/07/06 04:26:14;;;;;;;;;2.25;0.00;;;;;25.38;47.61;100090.53;5014083;28;51073;-39
2021/07/06 04:28:39;;;;;;;;;1.00;1.00;;;;;25.37;47.70;100099.97;5035731;27;51166;-39
2021/07/06 04:31:04;;;;;;;;;0.00;0.00;;;;;25.38;47.52;100100.78;5013520;28;51102;-39
2021/07/06 04:33:31;;;;;;;;;0.00;0.00;;;;;25.38;47.31;100101.63;5021238;27;51750;-39
2021/07/06 04:35:56;;;;;;;;;0.25;0.25;;;;;25.38;47.58;100096.09;5008893;27;50971;-39
2021/07/06 04:38:22;;;;;;;;;2.75;1.25;;;;;25.37;47.81;100097.19;5015636;28;51000;-39
2021/07/06 04:40:47;;;;;;;;;0.00;0.00;;;;;25.37;47.68;100104.69;5013299;28;51359;-39
2021/07/06 04:43:12;;;;;;;;;4.25;0.25;;;;;25.36;47.58;100103.84;5013487;28;51807;-39
2021/07/06 04:45:38;;;;;;;;;2.00;1.00;;;;;25.35;47.53;100104.97;5013589;27;51026;-39
2021/07/06 04:48:04;;;;;;;;;1.00;1.00;;;;;25.35;47.65;100115.22;5013552;28;50973;-39
2021/07/06 04:50:34;;;;;;;;;1.00;1.00;;;;;25.36;47.54;100122.41;5013071;28;51250;-39
2021/07/06 04:52:59;;;;;;;;;3.00;0.25;;;;;25.34;47.50;100122.69;5013216;28;50960;-39
2021/07/06 04:55:25;;;;;;;;;0.50;0.00;;;;;25.35;47.07;100112.44;5013253;27;51022;-39
2021/07/06 04:57:50;;;;;;;;;1.00;0.00;;;;;25.35;47.56;100126.31;5013336;28;51137;-39
2021/07/06 05:00:17;;;;;;;;;1.00;1.00;;;;;25.34;47.40;100122.69;5012298;27;51260;-39
2021/07/06 05:02:44;;;;;;;;;0.00;0.00;;;;;25.33;47.38;100121.88;5016721;28;52048;-38
2021/07/06 05:05:10;;;;;;;;;1.75;1.75;;;;;25.33;47.29;100126.56;5014515;28;51191;-39
2021/07/06 05:07:36;;;;;;;;;0.00;0.00;;;;;25.33;47.33;100132.13;5013220;28;51070;-39
2021/07/06 05:10:08;;;;;;;;;0.00;0.00;;;;;25.32;47.55;100130.44;5013014;27;51044;-39
2021/07/06 05:12:33;;;;;;;;;1.00;0.00;;;;;25.32;47.35;100125.75;5014103;28;52235;-39
2021/07/06 05:14:59;;;;;;;;;3.00;1.50;;;;;25.33;47.24;100141.28;5013362;28;51047;-45
2021/07/06 05:17:24;;;;;;;;;1.50;1.25;;;;;25.32;47.08;100114.66;5013250;28;51347;-42
2021/07/06 05:19:50;;;;;;;;;1.00;0.25;;;;;25.32;47.20;100134.06;5014969;27;51290;-43
2021/07/06 05:22:15;;;;;;;;;0.00;0.00;;;;;25.33;46.98;100124.63;5016633;28;51071;-41
2021/07/06 05:24:41;;;;;;;;;1.00;0.00;;;;;25.34;46.78;100128.25;5022600;28;51018;-42
2021/07/06 05:27:06;;;;;;;;;1.00;1.00;;;;;25.33;47.17;100135.72;5030569;27;50881;-43
2021/07/06 05:29:32;;;;;;;;;0.00;0.00;;;;;25.34;46.83;100136.56;5017519;28;51139;-47
2021/07/06 05:31:57;;;;;;;;;4.00;2.00;;;;;25.34;46.98;100150.41;5020006;27;51107;-41
2021/07/06 05:34:22;;;;;;;;;2.75;2.00;;;;;25.35;47.11;100162.34;5020928;28;51114;-42
2021/07/06 05:36:49;;;;;;;;;5.00;3.00;;;;;25.35;47.07;100157.63;5014566;28;51154;-42
2021/07/06 05:39:15;;;;;;;;;4.25;1.75;;;;;25.36;47.14;100169.56;5015232;27;50840;-42
2021/07/06 05:41:40;;;;;;;;;3.00;1.75;;;;;25.35;46.99;100171.50;5012461;28;51857;-42
2021/07/06 05:44:08;;;;;;;;;3.25;1.00;;;;;25.36;47.22;100167.59;5015792;27;51158;-45
2021/07/06 05:46:33;;;;;;;;;2.75;2.00;;;;;25.36;46.96;100161.22;5030295;28;51592;-44
2021/07/06 05:48:59;;;;;;;;;4.25;3.00;;;;;25.37;46.67;100177.59;5015605;28;51140;-43
2021/07/06 05:51:24;;;;;;;;;3.50;1.00;;;;;25.38;47.03;100175.66;5015962;28;51116;-45
2021/07/06 05:53:50;;;;;;;;;4.50;2.50;;;;;25.38;46.75;100172.88;5018824;28;51580;-42
2021/07/06 05:56:19;;;;;;;;;2.00;1.00;;;;;25.36;46.64;100177.88;5015220;28;50973;-45
2021/07/06 05:58:46;;;;;;;;;2.50;0.50;;;;;25.33;45.67;100188.41;5011186;28;51247;-46
2021/07/06 06:01:12;;;;;;;;;1.00;1.00;;;;;25.32;45.12;100192.28;5014447;28;51213;-46
2021/07/06 06:03:38;;;;;;;;;1.25;1.00;;;;;25.31;44.77;100173.94;5012976;28;52364;-43
2021/07/06 06:06:03;;;;;;;;;4.75;1.50;;;;;25.27;44.00;100195.00;5014823;28;51202;-40
2021/07/06 06:08:29;;;;;;;;;1.00;1.00;;;;;25.25;43.15;100188.06;5015733;28;51529;-45
2021/07/06 06:10:54;;;;;;;;;1.75;1.50;;;;;25.20;43.49;100205.50;5014492;28;51943;-45
2021/07/06 06:13:19;;;;;;;;;2.25;1.00;;;;;25.17;43.20;100183.88;5015234;28;51037;-44
2021/07/06 06:15:45;;;;;;;;;1.00;1.00;;;;;25.15;43.52;100208.25;5016229;28;51071;-41
2021/07/06 06:18:10;;;;;;;;;3.00;1.00;;;;;25.13;44.02;100199.38;5014633;28;51218;-41
2021/07/06 06:20:36;;;;;;;;;3.25;1.00;;;;;25.09;43.91;100212.09;5016729;28;51795;-46
2021/07/06 06:23:02;;;;;;;;;1.00;1.00;;;;;25.04;43.67;100201.00;5017741;27;50932;-41
2021/07/06 06:25:27;;;;;;;;;4.50;2.25;;;;;25.01;43.97;100201.47;5015872;28;51144;-42
2021/07/06 06:27:53;;;;;;;;;2.00;1.25;;;;;25.00;43.94;100221.97;5017943;27;50996;-41
2021/07/06 06:30:19;;;;;;;;;2.00;2.00;;;;;25.00;43.85;100208.13;5035195;28;51114;-44
2021/07/06 06:32:44;;;;;;;;;1.50;1.00;;;;;24.98;44.10;100211.16;5056238;27;51009;-43
2021/07/06 06:35:10;;;;;;;;;1.25;1.25;;;;;25.00;44.11;100235.81;5013625;27;50933;-41
2021/07/06 06:37:36;;;;;;;;;0.50;0.50;;;;;25.01;44.10;100234.72;5015332;28;50972;-42
2021/07/06 06:40:03;;;;;;;;;1.00;1.00;;;;;25.01;43.73;100235.63;5014388;28;51883;-43
2021/07/06 06:42:28;;;;;;;;;3.25;1.25;;;;;25.01;43.41;100234.72;5015222;28;52128;-42
2021/07/06 06:44:53;;;;;;;;;2.00;2.00;;;;;25.00;43.14;100235.81;5014677;28;51036;-40
2021/07/06 06:47:19;;;;;;;;;0.50;0.50;;;;;25.00;42.66;100249.69;5012813;28;50989;-43
2021/07/06 06:49:44;;;;;;;;;4.00;3.00;;;;;24.97;42.84;100250.22;5013715;28;51801;-42
2021/07/06 06:52:10;;;;;;;;;2.00;1.00;;;;;24.95;42.71;100244.13;5015190;27;51226;-43
2021/07/06 06:54:35;;;;;;;;;2.75;1.50;;;;;24.93;42.50;100235.25;5018139;28;51041;-41
2021/07/06 06:57:01;;;;;;;;;3.00;1.75;;;;;24.93;42.54;100254.66;5023747;28;51014;-43
2021/07/06 06:59:27;;;;;;;;;1.00;1.00;;;;;24.92;42.53;100250.22;5016346;28;51096;-41
2021/07/06 07:02:38;;;;;;;;;2.25;0.25;;;;;24.91;42.31;100252.13;5014212;28;51203;-41
2021/07/06 07:04:38;;;;;;;;;0.50;0.50;;;;;24.92;42.34;100251.03;5010548;28;50843;-42
2021/07/06 07:07:07;;;;;;;;;3.75;1.00;;;;;24.91;42.64;100249.38;5013488;28;51037;-40
2021/07/06 07:09:32;;;;;;;;;3.50;2.00;;;;;24.91;42.70;100249.38;5014392;27;51895;-40
2021/07/06 07:11:57;;;;;;;;;3.75;1.00;;;;;24.90;42.53;100264.28;5012279;28;51050;-41
2021/07/06 07:14:23;;;;;;;;;2.75;1.00;;;;;24.90;42.64;100247.66;5016983;28;51474;-41
2021/07/06 07:16:50;;;;;;;;;2.00;1.25;;;;;24.89;42.63;100254.31;5016597;28;51061;-41
2021/07/06 07:19:15;;;;;;;;;2.25;1.00;;;;;24.89;42.71;100262.63;5020250;28;52813;-41
2021/07/06 07:21:41;;;;;;;;;3.00;1.25;;;;;24.89;42.69;100267.34;5013737;28;51095;-41
2021/07/06 07:24:06;;;;;;;;;4.00;2.00;;;;;24.88;42.55;100273.97;5014845;28;50895;-41
2021/07/06 07:26:32;;;;;;;;;4.50;2.00;;;;;24.88;42.64;100276.75;5014182;28;51443;-41
2021/07/06 07:28:58;;;;;;;;;3.00;2.00;;;;;24.87;42.51;100287.00;5022992;27;51755;-40
2021/07/06 07:31:23;;;;;;;;;3.75;1.00;;;;;24.86;42.47;100285.34;5015291;27;51069;-41
2021/07/06 07:33:48;;;;;;;;;2.25;1.00;;;;;24.86;42.27;100288.09;5014903;27;51190;-41
2021/07/06 07:36:14;;;;;;;;;3.75;1.00;;;;;24.85;42.66;100289.22;5028591;28;50872;-41
2021/07/06 07:38:39;;;;;;;;;5.25;2.25;;;;;24.85;42.66;100285.59;5019875;28;50954;-40
2021/07/06 07:41:05;;;;;;;;;1.25;1.00;;;;;24.84;42.55;100298.63;5013562;28;51075;-41
2021/07/06 07:43:30;;;;;;;;;2.00;2.00;;;;;24.84;42.23;100297.78;5015182;28;51053;-41
2021/07/06 07:45:55;;;;;;;;;3.50;1.75;;;;;24.83;42.30;100293.34;5021602;27;51107;-41
2021/07/06 07:48:21;;;;;;;;;2.00;2.00;;;;;24.83;42.31;100305.25;5015866;28;51097;-40
2021/07/06 07:50:47;;;;;;;;;2.00;2.00;;;;;24.82;42.29;100298.06;5013910;28;51097;-41
2021/07/06 07:53:13;;;;;;;;;3.00;1.00;;;;;24.81;42.41;100301.94;5013716;28;51172;-41
2021/07/06 07:55:38;;;;;;;;;4.00;1.25;;;;;24.81;42.38;100301.09;5014394;28;50978;-40
2021/07/06 07:58:03;;;;;;;;;1.25;1.00;;;;;24.82;42.38;100305.53;5013659;28;51135;-41
2021/07/06 08:00:29;;;;;;;;;1.50;1.50;;;;;24.82;42.34;100305.53;5016361;28;51449;-41
2021/07/06 08:02:54;;;;;;;;;4.25;2.25;;;;;24.82;42.38;100305.53;5016498;28;51576;-40
2021/07/06 08:05:20;;;;;;;;;1.75;1.75;;;;;24.81;42.29;100314.94;5014375;28;51041;-41
2021/07/06 08:07:45;;;;;;;;;4.25;2.25;;;;;24.80;42.40;100324.31;5013900;28;51878;-42
2021/07/06 08:10:11;;;;;;;;;5.00;1.00;;;;;24.79;42.20;100325.44;5014052;28;51030;-40
2021/07/06 08:12:36;;;;;;;;;1.50;1.00;;;;;24.79;42.40;100331.81;5032421;28;51135;-41
2021/07/06 08:15:03;;;;;;;;;2.50;2.00;;;;;24.78;42.06;100335.66;5016992;28;50948;-43
2021/07/06 08:17:28;;;;;;;;;3.25;1.00;;;;;24.79;42.34;100339.28;5026001;28;51794;-41
2021/07/06 08:19:59;;;;;;;;;5.00;2.50;;;;;24.77;42.39;100351.47;5019730;28;50978;-41
2021/07/06 08:22:25;;;;;;;;;2.50;2.00;;;;;24.76;42.37;100347.03;5014889;28;51019;-42
2021/07/06 08:24:52;;;;;;;;;3.75;2.50;;;;;24.77;42.20;100354.22;5013991;28;51278;-41
2021/07/06 08:27:17;;;;;;;;;3.25;2.25;;;;;24.75;42.06;100344.53;5020114;27;51118;-41
2021/07/06 08:29:42;;;;;;;;;2.50;1.75;;;;;24.75;42.15;100350.06;5014241;28;50898;-42
2021/07/06 08:32:08;;;;;;;;;3.00;2.00;;;;;24.75;42.29;100372.22;5015980;28;51053;-40
2021/07/06 08:34:33;;;;;;;;;3.00;2.00;;;;;24.73;42.27;100366.94;5018186;28;51118;-41
2021/07/06 08:36:58;;;;;;;;;2.00;2.00;;;;;24.74;42.43;100362.25;5015116;27;52019;-41
2021/07/06 08:39:24;;;;;;;;;3.00;3.00;;;;;24.73;42.01;100364.16;5016237;28;50912;-40
2021/07/06 08:41:49;;;;;;;;;3.25;2.00;;;;;24.73;41.97;100372.47;5028555;27;50868;-40
2021/07/06 08:44:15;;;;;;;;;3.25;1.75;;;;;24.72;41.91;100368.03;5024341;28;51601;-40
2021/07/06 08:46:41;;;;;;;;;1.25;1.25;;;;;24.71;41.88;100373.84;5015360;28;51616;-41
2021/07/06 08:49:07;;;;;;;;;1.50;1.50;;;;;24.71;41.90;100380.22;5014722;28;51254;-41
2021/07/06 08:51:34;;;;;;;;;4.75;1.75;;;;;24.71;42.02;100383.00;5022433;27;51433;-44
2021/07/06 08:53:59;;;;;;;;;4.75;4.00;;;;;24.66;41.01;100387.63;5007316;28;51547;-45
2021/07/06 08:56:25;;;;;;;;;3.00;1.00;;;;;24.56;40.71;100385.59;5006113;27;51785;-45
2021/07/06 08:58:52;;;;;;;;;4.00;2.00;;;;;24.44;40.90;100393.22;5018726;27;52924;-44
2021/07/06 09:01:25;;;;;;;;;2.50;2.25;;;;;24.34;41.09;100390.31;5017361;27;51121;-46
2021/07/06 09:03:59;;;;;;;;;8.25;3.50;;;;;24.23;40.90;100397.63;5052153;27;51018;-46
2021/07/06 09:06:27;;;;;;;;;3.00;2.50;;;;;24.13;41.23;100395.56;5037432;27;53198;-46
2021/07/06 09:09:17;;;;;;;;;5.50;2.00;;;;;24.06;40.90;100403.22;5028445;27;51200;-44
2021/07/06 09:11:47;;;;;;;;;3.25;2.75;;;;;23.99;41.35;100405.38;5048592;27;51021;-45
2021/07/06 09:14:13;;;;;;;;;4.00;3.00;;;;;23.93;41.08;100400.84;5020033;27;50970;-49
2021/07/06 09:16:39;;;;;;;;;4.00;4.00;;;;;23.85;41.30;100399.34;5037218;27;51179;-45
2021/07/06 09:19:22;;;;;;;;;4.00;2.00;;;;;23.73;40.85;100406.09;5022198;27;51196;-45
2021/07/06 09:22:09;;;;;;;;;2.25;2.25;;;;;23.67;41.47;100415.41;5038854;27;53198;-44
2021/07/06 09:24:35;;;;;;;;;5.50;3.00;;;;;23.63;41.26;100400.41;5036000;27;51488;-44
2021/07/06 09:27:22;;;;;;;;;2.00;2.00;;;;;23.61;41.40;100404.25;5067382;27;51484;-45
2021/07/06 09:30:18;;;;;;;;;2.00;1.75;;;;;23.57;41.19;100397.56;5078052;27;51188;-45
2021/07/06 09:32:45;;;;;;;;;5.25;3.00;;;;;23.54;41.72;100402.72;5020635;27;51014;-44
2021/07/06 09:35:22;;;;;;;;;4.00;4.00;;;;;23.49;41.15;100400.75;5037050;27;51116;-48
2021/07/06 09:37:57;;;;;;;;;7.00;3.00;;;;;23.41;41.21;100408.63;5052327;27;51198;-47
2021/07/06 09:40:32;;;;;;;;;3.50;3.00;;;;;23.34;41.91;100403.25;5026538;27;52684;-48
2021/07/06 09:43:26;;;;;;;;;3.25;3.25;;;;;23.34;41.66;100417.06;5027978;27;51164;-46
2021/07/06 09:45:54;;;;;;;;;2.75;2.75;;;;;23.33;42.05;100407.09;5056504;27;50940;-47
2021/07/06 09:48:20;;;;;;;;;3.75;3.75;;;;;23.34;41.94;100408.78;5052130;27;51006;-45
2021/07/06 09:50:45;;;;;;;;;4.25;3.75;;;;;23.33;41.79;100415.41;5078099;27;51045;-45
2021/07/06 09:53:25;;;;;;;;;3.75;2.00;;;;;23.30;41.33;100411.22;5025252;27;51035;-47
2021/07/06 09:55:51;;;;;;;;;2.00;2.00;;;;;23.27;41.81;100402.59;5039188;27;51102;-45
2021/07/06 09:58:16;;;;;;;;;2.00;2.00;;;;;23.25;41.50;100410.31;5048442;27;51903;-45
2021/07/06 10:00:42;;;;;;;;;2.75;2.00;;;;;23.23;40.82;100418.00;5022663;27;52382;-46
2021/07/06 10:03:07;;;;;;;;;3.00;1.00;;;;;23.21;40.80;100417.41;5031048;27;51488;-46
2021/07/06 10:05:33;;;;;;;;;3.25;3.25;;;;;23.19;40.91;100417.66;5021927;27;51388;-46
2021/07/06 10:07:59;;;;;;;;;2.50;2.50;;;;;23.20;41.06;100418.50;5027376;27;52891;-48
2021/07/06 10:10:25;;;;;;;;;1.25;1.25;;;;;23.21;40.97;100426.53;5017918;27;51494;-48
2021/07/06 10:12:51;;;;;;;;;5.50;2.50;;;;;23.21;41.03;100422.94;5023088;27;51228;-49
2021/07/06 10:15:18;;;;;;;;;1.75;1.75;;;;;23.21;41.31;100432.06;5025648;27;52570;-48
2021/07/06 10:17:45;;;;;;;;;5.00;3.00;;;;;23.20;41.17;100424.03;5040426;27;51182;-48
2021/07/06 10:20:13;;;;;;;;;1.00;1.00;;;;;23.16;40.63;100433.91;5021178;27;51076;-45
2021/07/06 10:22:39;;;;;;;;;2.00;2.00;;;;;23.15;40.49;100440.53;5012538;27;51313;-47
2021/07/06 10:25:07;;;;;;;;;2.75;2.75;;;;;23.14;40.52;100449.91;5017910;27;51218;-44
2021/07/06 10:27:37;;;;;;;;;2.25;2.25;;;;;23.13;40.85;100448.22;5047294;27;51733;-50
2021/07/06 10:30:14;;;;;;;;;2.50;2.00;;;;;23.11;40.28;100451.22;5039047;27;51266;-46
2021/07/06 10:32:42;;;;;;;;;3.00;1.75;;;;;23.10;41.02;100446.78;5042530;27;51130;-48
2021/07/06 10:35:11;;;;;;;;;6.50;3.00;;;;;23.10;40.70;100440.44;5052777;27;51697;-45
2021/07/06 10:37:38;;;;;;;;;2.00;1.00;;;;;23.10;40.83;100454.25;5024646;27;51810;-48
2021/07/06 10:40:18;;;;;;;;;3.25;2.00;;;;;23.08;40.56;100435.16;5034140;27;51222;-44
2021/07/06 10:42:46;;;;;;;;;1.50;1.50;;;;;;;;5037420;27;51659;-45
2021/07/06 10:45:20;;;;;;;;;1.75;1.75;;;;;23.10;40.90;100448.72;5060096;27;51271;-46
2021/07/06 10:47:49;;;;;;;;;3.75;3.75;;;;;23.10;40.97;100448.72;5026316;27;53331;-48
2021/07/06 10:50:29;;;;;;;;;3.25;3.00;;;;;23.11;41.15;100461.44;5019136;27;51456;-47
2021/07/06 10:53:18;;;;;;;;;2.25;1.50;;;;;23.10;40.51;100459.75;5065737;27;51159;-48
2021/07/06 10:55:45;;;;;;;;;2.75;2.75;;;;;;;;5026700;27;52380;-46
2021/07/06 10:58:10;;;;;;;;;3.50;1.00;;;;;23.11;41.42;100459.50;5011902;27;51994;-47
2021/07/06 11:00:44;;;;;;;;;3.00;2.00;;;;;23.13;40.63;100460.09;5018951;27;51215;-45
2021/07/06 11:03:17;;;;;;;;;2.00;2.00;;;;;23.15;41.16;100463.47;5008504;27;51131;-44
2021/07/06 11:05:43;;;;;;;;;4.75;1.25;;;;;23.14;41.18;100463.72;5012926;28;51299;-46
2021/07/06 11:08:41;;;;;;;;;5.50;2.00;;;;;23.14;40.82;100459.03;5012083;28;51011;-48
2021/07/06 11:11:06;;;;;;;;;3.00;1.00;;;;;23.16;40.55;100456.84;5005028;28;51217;-45
2021/07/06 11:13:32;;;;;;;;;2.75;1.00;;;;;23.17;40.91;100471.50;5012813;27;51274;-44
2021/07/06 11:16:00;;;;;;;;;5.00;2.50;;;;;23.17;40.88;100474.28;5026836;28;51116;-47
2021/07/06 11:18:34;;;;;;;;;3.75;1.75;;;;;23.16;40.45;100467.06;5019600;28;51211;-48
2021/07/06 11:20:59;;;;;;;;;3.75;2.75;;;;;23.17;40.71;100466.81;5012397;28;51511;-47
2021/07/06 11:23:32;;;;;;;;;4.50;2.00;;;;;23.19;40.77;100461.03;5010282;27;51154;-46
2021/07/06 11:26:03;;;;;;;;;1.50;1.25;;;;;23.20;40.88;100480.13;5013351;28;51191;-45